sensor_id;sensor_type;location;lat;lon;timestamp;pressure;altitude;pressure_sealevel;temperature;humidity
41246;BME280;53880;47.526;18.986;2023-04-22T00:00:57;99543.63;;;20.18;40.72
41246;BME280;53880;47.526;18.986;2023-04-22T00:03:15;99535.59;;;20.18;40.79
41246;BME280;53880;47.526;18.986;2023-04-22T00:05:31;99539.25;;;20.17;40.77
41246;BME280;53880;47.526;18.986;2023-04-22T00:07:49;99538.44;;;20.16;40.62
41246;BME280;53880;47.526;18.986;2023-04-22T00:10:09;99534.94;;;20.16;40.66
41246;BME280;53880;47.526;18.986;2023-04-22T00:12:25;99542.13;;;20.15;40.77
41246;BME280;53880;47.526;18.986;2023-04-22T00:14:42;99543.81;;;20.16;40.86
41246;BME280;53880;47.526;18.986;2023-04-22T00:17:00;99539.25;;;20.17;41.30
41246;BME280;53880;47.526;18.986;2023-04-22T00:19:20;99531.41;;;20.15;41.06
41246;BME280;53880;47.526;18.986;2023-04-22T00:21:36;99537.59;;;20.16;40.74
41246;BME280;53880;47.526;18.986;2023-04-22T00:23:56;99540.28;;;20.16;40.71
41246;BME280;53880;47.526;18.986;2023-04-22T00:26:16;99537.75;;;20.14;40.89
41246;BME280;53880;47.526;18.986;2023-04-22T00:28:36;99535.25;;;20.13;40.55
41246;BME280;53880;47.526;18.986;2023-04-22T00:30:56;99541.44;;;20.13;40.58
41246;BME280;53880;47.526;18.986;2023-04-22T00:33:18;99536.28;;;20.12;40.76
41246;BME280;53880;47.526;18.986;2023-04-22T00:35:36;99540.59;;;20.13;41.23
41246;BME280;53880;47.526;18.986;2023-04-22T00:37:53;99539.94;;;20.11;41.23
41246;BME280;53880;47.526;18.986;2023-04-22T00:40:11;99533.75;;;20.10;40.67
41246;BME280;53880;47.526;18.986;2023-04-22T00:42:29;99532.09;;;20.09;40.89
41246;BME280;53880;47.526;18.986;2023-04-22T00:44:46;99534.75;;;20.09;40.99
41246;BME280;53880;47.526;18.986;2023-04-22T00:47:01;99528.56;;;20.09;41.84
41246;BME280;53880;47.526;18.986;2023-04-22T00:49:23;99535.94;;;20.07;42.47
41246;BME280;53880;47.526;18.986;2023-04-22T00:51:44;99535.25;;;20.05;42.09
41246;BME280;53880;47.526;18.986;2023-04-22T00:54:01;99535.25;;;20.05;42.56
41246;BME280;53880;47.526;18.986;2023-04-22T00:56:21;99534.41;;;20.04;42.46
41246;BME280;53880;47.526;18.986;2023-04-22T00:58:43;99535.44;;;20.03;42.39
41246;BME280;53880;47.526;18.986;2023-04-22T01:01:03;99544.44;;;20.02;42.33
41246;BME280;53880;47.526;18.986;2023-04-22T01:03:25;99538.44;;;20.00;42.86
41246;BME280;53880;47.526;18.986;2023-04-22T01:05:44;99534.78;;;20.01;42.25
41246;BME280;53880;47.526;18.986;2023-04-22T01:07:59;99539.28;;;20.01;42.13
41246;BME280;53880;47.526;18.986;2023-04-22T01:10:14;99543.59;;;20.02;41.72
41246;BME280;53880;47.526;18.986;2023-04-22T01:12:29;99546.28;;;20.02;41.87
41246;BME280;53880;47.526;18.986;2023-04-22T01:14:50;99545.59;;;20.00;41.40
41246;BME280;53880;47.526;18.986;2023-04-22T01:17:05;99549.13;;;20.00;41.49
41246;BME280;53880;47.526;18.986;2023-04-22T01:19:25;99551.97;;;19.99;41.32
41246;BME280;53880;47.526;18.986;2023-04-22T01:21:51;99554.47;;;20.00;40.97
41246;BME280;53880;47.526;18.986;2023-04-22T01:24:08;99552.78;;;19.99;41.31
41246;BME280;53880;47.526;18.986;2023-04-22T01:26:24;99557.47;;;19.97;41.37
41246;BME280;53880;47.526;18.986;2023-04-22T01:28:41;99561.81;;;19.98;41.79
41246;BME280;53880;47.526;18.986;2023-04-22T01:31:02;99558.31;;;19.98;41.46
41246;BME280;53880;47.526;18.986;2023-04-22T01:33:20;99556.66;;;19.97;41.74
41246;BME280;53880;47.526;18.986;2023-04-22T01:35:36;99552.28;;;19.96;42.04
41246;BME280;53880;47.526;18.986;2023-04-22T01:37:54;99560.50;;;19.94;41.90
41246;BME280;53880;47.526;18.986;2023-04-22T01:40:12;99554.31;;;19.94;41.79
41246;BME280;53880;47.526;18.986;2023-04-22T01:42:33;99557.47;;;19.97;41.66
41246;BME280;53880;47.526;18.986;2023-04-22T01:44:49;99560.16;;;19.97;41.76
41246;BME280;53880;47.526;18.986;2023-04-22T01:47:06;99560.16;;;19.97;41.32
41246;BME280;53880;47.526;18.986;2023-04-22T01:49:22;99552.13;;;19.97;41.50
41246;BME280;53880;47.526;18.986;2023-04-22T01:51:39;99559.47;;;19.95;41.39
41246;BME280;53880;47.526;18.986;2023-04-22T01:53:58;99555.16;;;19.94;41.19
41246;BME280;53880;47.526;18.986;2023-04-22T01:56:15;99555.28;;;19.93;41.22
41246;BME280;53880;47.526;18.986;2023-04-22T01:58:33;99560.63;;;19.93;41.25
41246;BME280;53880;47.526;18.986;2023-04-22T02:00:52;99558.13;;;19.91;41.30
41246;BME280;53880;47.526;18.986;2023-04-22T02:03:12;99551.94;;;19.91;41.14
41246;BME280;53880;47.526;18.986;2023-04-22T02:05:27;99553.94;;;19.89;41.38
41246;BME280;53880;47.526;18.986;2023-04-22T02:07:48;99553.28;;;19.87;41.48
41246;BME280;53880;47.526;18.986;2023-04-22T02:10:05;99563.00;;;19.88;41.57
41246;BME280;53880;47.526;18.986;2023-04-22T02:12:26;99546.94;;;19.88;41.21
41246;BME280;53880;47.526;18.986;2023-04-22T02:14:41;99547.94;;;19.87;41.34
41246;BME280;53880;47.526;18.986;2023-04-22T02:16:56;99548.97;;;19.86;41.85
41246;BME280;53880;47.526;18.986;2023-04-22T02:19:11;99549.94;;;19.85;41.65
41246;BME280;53880;47.526;18.986;2023-04-22T02:21:30;99555.28;;;19.85;41.47
41246;BME280;53880;47.526;18.986;2023-04-22T02:23:48;99548.44;;;19.82;41.20
41246;BME280;53880;47.526;18.986;2023-04-22T02:26:06;99551.94;;;19.83;41.64
41246;BME280;53880;47.526;18.986;2023-04-22T02:28:26;99549.44;;;19.81;41.46
41246;BME280;53880;47.526;18.986;2023-04-22T02:30:42;99551.28;;;19.81;41.48
41246;BME280;53880;47.526;18.986;2023-04-22T02:32:59;99546.94;;;19.80;41.22
41246;BME280;53880;47.526;18.986;2023-04-22T02:35:17;99547.94;;;19.78;41.58
41246;BME280;53880;47.526;18.986;2023-04-22T02:37:38;99547.25;;;19.76;41.38
41246;BME280;53880;47.526;18.986;2023-04-22T02:39:54;99539.25;;;19.76;41.35
41246;BME280;53880;47.526;18.986;2023-04-22T02:42:11;99543.75;;;19.76;41.45
41246;BME280;53880;47.526;18.986;2023-04-22T02:44:29;99542.09;;;19.75;41.70
41246;BME280;53880;47.526;18.986;2023-04-22T02:46:46;99545.94;;;19.72;41.72
41246;BME280;53880;47.526;18.986;2023-04-22T02:49:01;99545.09;;;19.72;42.11
41246;BME280;53880;47.526;18.986;2023-04-22T02:51:17;99540.91;;;19.69;41.90
41246;BME280;53880;47.526;18.986;2023-04-22T02:53:32;99548.91;;;19.69;41.64
41246;BME280;53880;47.526;18.986;2023-04-22T02:55:50;99541.06;;;19.68;41.99
41246;BME280;53880;47.526;18.986;2023-04-22T02:58:06;99543.06;;;19.66;42.58
41246;BME280;53880;47.526;18.986;2023-04-22T03:00:22;99545.75;;;19.66;43.64
41246;BME280;53880;47.526;18.986;2023-04-22T03:02:38;99549.41;;;19.65;43.51
41246;BME280;53880;47.526;18.986;2023-04-22T03:05:01;99550.41;;;19.64;42.84
41246;BME280;53880;47.526;18.986;2023-04-22T03:07:18;99550.41;;;19.64;43.47
41246;BME280;53880;47.526;18.986;2023-04-22T03:09:40;99550.41;;;19.64;43.09
41246;BME280;53880;47.526;18.986;2023-04-22T03:11:56;99549.75;;;19.62;43.31
41246;BME280;53880;47.526;18.986;2023-04-22T03:14:13;99551.56;;;19.61;43.00
41246;BME280;53880;47.526;18.986;2023-04-22T03:16:33;99555.22;;;19.60;43.41
41246;BME280;53880;47.526;18.986;2023-04-22T03:18:54;99549.09;;;19.60;43.06
41246;BME280;53880;47.526;18.986;2023-04-22T03:21:12;99548.41;;;19.58;43.36
41246;BME280;53880;47.526;18.986;2023-04-22T03:23:34;99556.44;;;19.58;42.90
41246;BME280;53880;47.526;18.986;2023-04-22T03:25:49;99553.09;;;19.56;42.72
41246;BME280;53880;47.526;18.986;2023-04-22T03:28:08;99558.56;;;19.54;42.31
41246;BME280;53880;47.526;18.986;2023-04-22T03:30:26;99550.72;;;19.53;42.18
41246;BME280;53880;47.526;18.986;2023-04-22T03:32:43;99558.75;;;19.53;42.46
41246;BME280;53880;47.526;18.986;2023-04-22T03:35:27;99558.91;;;19.51;42.49
41246;BME280;53880;47.526;18.986;2023-04-22T03:37:45;99561.72;;;19.50;42.37
41246;BME280;53880;47.526;18.986;2023-04-22T03:40:09;99564.41;;;19.50;42.61
41246;BME280;53880;47.526;18.986;2023-04-22T03:42:29;99560.91;;;19.49;42.27
41246;BME280;53880;47.526;18.986;2023-04-22T03:44:45;99561.06;;;19.48;42.31
41246;BME280;53880;47.526;18.986;2023-04-22T03:47:06;99562.06;;;19.47;42.21
41246;BME280;53880;47.526;18.986;2023-04-22T03:49:32;99563.91;;;19.46;42.34
41246;BME280;53880;47.526;18.986;2023-04-22T03:51:50;99560.38;;;19.46;42.47
41246;BME280;53880;47.526;18.986;2023-04-22T03:54:11;99566.56;;;19.46;42.42
41246;BME280;53880;47.526;18.986;2023-04-22T03:56:32;99566.56;;;19.46;42.09
41246;BME280;53880;47.526;18.986;2023-04-22T03:58:49;99562.22;;;19.45;42.08
41246;BME280;53880;47.526;18.986;2023-04-22T04:01:04;99566.75;;;19.45;42.42
41246;BME280;53880;47.526;18.986;2023-04-22T04:03:20;99568.56;;;19.44;41.87
41246;BME280;53880;47.526;18.986;2023-04-22T04:05:40;99573.06;;;19.44;42.02
41246;BME280;53880;47.526;18.986;2023-04-22T04:07:58;99564.22;;;19.43;42.11
41246;BME280;53880;47.526;18.986;2023-04-22T04:10:15;99575.75;;;19.44;42.65
41246;BME280;53880;47.526;18.986;2023-04-22T04:12:33;99579.25;;;19.44;43.63
41246;BME280;53880;47.526;18.986;2023-04-22T04:14:51;99574.88;;;19.43;43.81
41246;BME280;53880;47.526;18.986;2023-04-22T04:17:08;99573.06;;;19.44;43.05
41246;BME280;53880;47.526;18.986;2023-04-22T04:19:28;99574.88;;;19.43;43.34
41246;BME280;53880;47.526;18.986;2023-04-22T04:21:47;99579.41;;;19.43;43.42
41246;BME280;53880;47.526;18.986;2023-04-22T04:24:09;99590.91;;;19.43;43.18
41246;BME280;53880;47.526;18.986;2023-04-22T04:26:32;99582.09;;;19.43;43.26
41246;BME280;53880;47.526;18.986;2023-04-22T04:28:58;99582.91;;;19.43;43.15
41246;BME280;53880;47.526;18.986;2023-04-22T04:31:17;99582.91;;;19.43;42.64
41246;BME280;53880;47.526;18.986;2023-04-22T04:33:34;99587.28;;;19.44;42.73
41246;BME280;53880;47.526;18.986;2023-04-22T04:35:53;99587.09;;;19.46;42.55
41246;BME280;53880;47.526;18.986;2023-04-22T04:38:13;99589.78;;;19.46;43.05
41246;BME280;53880;47.526;18.986;2023-04-22T04:40:29;99594.25;;;19.45;43.36
41246;BME280;53880;47.526;18.986;2023-04-22T04:42:55;99590.78;;;19.45;43.41
41246;BME280;53880;47.526;18.986;2023-04-22T04:45:16;99600.78;;;19.43;43.08
41246;BME280;53880;47.526;18.986;2023-04-22T04:47:34;99599.09;;;19.42;43.05
41246;BME280;53880;47.526;18.986;2023-04-22T04:50:00;99602.78;;;19.41;43.14
41246;BME280;53880;47.526;18.986;2023-04-22T04:52:21;99599.94;;;19.42;42.67
41246;BME280;53880;47.526;18.986;2023-04-22T04:54:37;99603.47;;;19.43;43.32
41246;BME280;53880;47.526;18.986;2023-04-22T04:56:54;99603.59;;;19.41;43.53
41246;BME280;53880;47.526;18.986;2023-04-22T04:59:16;99608.94;;;19.41;43.47
41246;BME280;53880;47.526;18.986;2023-04-22T05:01:31;99609.97;;;19.40;43.37
41246;BME280;53880;47.526;18.986;2023-04-22T05:03:51;99612.63;;;19.40;43.32
41246;BME280;53880;47.526;18.986;2023-04-22T05:06:10;99606.44;;;19.40;42.80
41246;BME280;53880;47.526;18.986;2023-04-22T05:08:28;99611.13;;;19.46;43.14
41246;BME280;53880;47.526;18.986;2023-04-22T05:10:52;99600.66;;;19.52;43.18
41246;BME280;53880;47.526;18.986;2023-04-22T05:13:07;99608.84;;;19.59;42.94
41246;BME280;53880;47.526;18.986;2023-04-22T05:15:23;99612.22;;;19.69;43.07
41246;BME280;53880;47.526;18.986;2023-04-22T05:17:40;99603.22;;;19.78;42.72
41246;BME280;53880;47.526;18.986;2023-04-22T05:19:56;99607.41;;;19.89;42.45
41246;BME280;53880;47.526;18.986;2023-04-22T05:22:19;99608.44;;;20.04;42.46
41246;BME280;53880;47.526;18.986;2023-04-22T05:24:39;99610.81;;;20.15;42.56
41246;BME280;53880;47.526;18.986;2023-04-22T05:27:00;99600.97;;;20.23;42.47
41246;BME280;53880;47.526;18.986;2023-04-22T05:29:19;99604.50;;;20.32;42.32
41246;BME280;53880;47.526;18.986;2023-04-22T05:31:37;99606.19;;;20.41;42.18
41246;BME280;53880;47.526;18.986;2023-04-22T05:33:55;99604.50;;;20.48;42.14
41246;BME280;53880;47.526;18.986;2023-04-22T05:36:11;99605.53;;;20.55;41.79
41246;BME280;53880;47.526;18.986;2023-04-22T05:38:27;99608.34;;;20.62;41.86
41246;BME280;53880;47.526;18.986;2023-04-22T05:40:44;99608.34;;;20.70;41.60
41246;BME280;53880;47.526;18.986;2023-04-22T05:43:05;99619.34;;;20.75;41.57
41246;BME280;53880;47.526;18.986;2023-04-22T05:45:26;99618.53;;;20.82;41.56
41246;BME280;53880;47.526;18.986;2023-04-22T05:47:42;99617.00;;;20.88;41.36
41246;BME280;53880;47.526;18.986;2023-04-22T05:49:59;99621.84;;;20.92;41.25
41246;BME280;53880;47.526;18.986;2023-04-22T05:52:25;99608.59;;;20.99;41.33
41246;BME280;53880;47.526;18.986;2023-04-22T05:54:55;99613.31;;;21.05;41.31
41246;BME280;53880;47.526;18.986;2023-04-22T05:57:10;99620.69;;;21.11;41.95
41246;BME280;53880;47.526;18.986;2023-04-22T05:59:28;99611.94;;;21.17;41.87
41246;BME280;53880;47.526;18.986;2023-04-22T06:01:45;99620.13;;;21.23;41.95
41246;BME280;53880;47.526;18.986;2023-04-22T06:04:09;99614.91;;;21.30;42.18
41246;BME280;53880;47.526;18.986;2023-04-22T06:06:27;99615.06;;;21.37;42.19
41246;BME280;53880;47.526;18.986;2023-04-22T06:08:47;99615.34;;;21.42;41.86
41246;BME280;53880;47.526;18.986;2023-04-22T06:11:04;99619.22;;;21.47;42.04
41246;BME280;53880;47.526;18.986;2023-04-22T06:13:22;99622.19;;;21.52;41.96
41246;BME280;53880;47.526;18.986;2023-04-22T06:15:41;99613.97;;;21.54;41.60
41246;BME280;53880;47.526;18.986;2023-04-22T06:18:01;99615.47;;;21.56;41.56
41246;BME280;53880;47.526;18.986;2023-04-22T06:20:21;99624.34;;;21.57;41.70
41246;BME280;53880;47.526;18.986;2023-04-22T06:22:39;99624.19;;;21.58;41.69
41246;BME280;53880;47.526;18.986;2023-04-22T06:24:59;99623.16;;;21.59;41.17
41246;BME280;53880;47.526;18.986;2023-04-22T06:27:15;99628.38;;;21.61;41.84
41246;BME280;53880;47.526;18.986;2023-04-22T06:29:37;99617.66;;;21.61;41.74
41246;BME280;53880;47.526;18.986;2023-04-22T06:31:54;99628.19;;;21.62;41.39
41246;BME280;53880;47.526;18.986;2023-04-22T06:34:15;99629.03;;;21.63;41.27
41246;BME280;53880;47.526;18.986;2023-04-22T06:36:33;99628.53;;;21.59;41.50
41246;BME280;53880;47.526;18.986;2023-04-22T06:38:51;99614.97;;;21.61;41.67
41246;BME280;53880;47.526;18.986;2023-04-22T06:41:29;99615.78;;;21.61;41.63
41246;BME280;53880;47.526;18.986;2023-04-22T06:43:57;99611.25;;;21.62;41.97
41246;BME280;53880;47.526;18.986;2023-04-22T06:46:49;99618.47;;;21.61;42.72
41246;BME280;53880;47.526;18.986;2023-04-22T06:49:10;99619.47;;;21.60;42.30
41246;BME280;53880;47.526;18.986;2023-04-22T06:51:46;99618.63;;;21.60;42.40
41246;BME280;53880;47.526;18.986;2023-04-22T06:54:04;99612.44;;;21.59;42.58
41246;BME280;53880;47.526;18.986;2023-04-22T06:56:19;99624.84;;;21.60;42.47
41246;BME280;53880;47.526;18.986;2023-04-22T06:58:37;99610.59;;;21.60;42.11
41246;BME280;53880;47.526;18.986;2023-04-22T07:00:57;99624.00;;;21.60;42.19
41246;BME280;53880;47.526;18.986;2023-04-22T07:03:12;99621.13;;;21.61;42.21
41246;BME280;53880;47.526;18.986;2023-04-22T07:05:34;99614.13;;;21.60;42.10
41246;BME280;53880;47.526;18.986;2023-04-22T07:07:52;99620.31;;;21.61;42.11
41246;BME280;53880;47.526;18.986;2023-04-22T07:10:10;99614.13;;;21.60;42.25
41246;BME280;53880;47.526;18.986;2023-04-22T07:12:32;99613.09;;;21.61;42.35
41246;BME280;53880;47.526;18.986;2023-04-22T07:14:50;99619.47;;;21.60;42.58
41246;BME280;53880;47.526;18.986;2023-04-22T07:17:12;99613.09;;;21.61;42.62
41246;BME280;53880;47.526;18.986;2023-04-22T07:19:30;99626.50;;;21.61;42.64
41246;BME280;53880;47.526;18.986;2023-04-22T07:21:47;99624.84;;;21.60;42.74
41246;BME280;53880;47.526;18.986;2023-04-22T07:24:10;99620.47;;;21.59;42.81
41246;BME280;53880;47.526;18.986;2023-04-22T07:26:31;99627.53;;;21.60;42.76
41246;BME280;53880;47.526;18.986;2023-04-22T07:28:48;99624.19;;;21.58;43.03
41246;BME280;53880;47.526;18.986;2023-04-22T07:31:03;99626.88;;;21.58;43.06
41246;BME280;53880;47.526;18.986;2023-04-22T07:33:23;99622.50;;;21.57;43.01
41246;BME280;53880;47.526;18.986;2023-04-22T07:35:38;99624.34;;;21.57;43.09
41246;BME280;53880;47.526;18.986;2023-04-22T07:37:54;99631.56;;;21.56;43.17
41246;BME280;53880;47.526;18.986;2023-04-22T07:40:11;99634.06;;;21.58;43.12
41246;BME280;53880;47.526;18.986;2023-04-22T07:42:31;99619.81;;;21.57;43.45
41246;BME280;53880;47.526;18.986;2023-04-22T07:44:46;99629.69;;;21.57;43.52
41246;BME280;53880;47.526;18.986;2023-04-22T07:47:02;99626.22;;;21.56;43.31
41246;BME280;53880;47.526;18.986;2023-04-22T07:49:16;99629.53;;;21.58;43.53
41246;BME280;53880;47.526;18.986;2023-04-22T07:51:36;99627.88;;;21.57;43.45
41246;BME280;53880;47.526;18.986;2023-04-22T07:53:56;99627.88;;;21.57;43.21
41246;BME280;53880;47.526;18.986;2023-04-22T07:56:13;99620.66;;;21.58;43.41
41246;BME280;53880;47.526;18.986;2023-04-22T07:58:31;99618.81;;;21.58;43.39
41246;BME280;53880;47.526;18.986;2023-04-22T08:00:50;99624.84;;;21.60;43.33
41246;BME280;53880;47.526;18.986;2023-04-22T08:03:08;99625.00;;;21.59;43.05
41246;BME280;53880;47.526;18.986;2023-04-22T08:05:28;99621.31;;;21.60;43.41
41246;BME280;53880;47.526;18.986;2023-04-22T08:07:45;99622.31;;;21.59;43.29
41246;BME280;53880;47.526;18.986;2023-04-22T08:10:01;99623.16;;;21.59;43.32
41246;BME280;53880;47.526;18.986;2023-04-22T08:12:18;99625.84;;;21.59;43.55
41246;BME280;53880;47.526;18.986;2023-04-22T08:14:34;99625.84;;;21.59;43.69
41246;BME280;53880;47.526;18.986;2023-04-22T08:16:52;99625.00;;;21.59;43.76
41246;BME280;53880;47.526;18.986;2023-04-22T08:19:12;99627.69;;;21.59;43.76
41246;BME280;53880;47.526;18.986;2023-04-22T08:21:29;99622.50;;;21.57;43.77
41246;BME280;53880;47.526;18.986;2023-04-22T08:23:47;99626.88;;;21.58;44.08
41246;BME280;53880;47.526;18.986;2023-04-22T08:26:03;99626.22;;;21.56;44.28
41246;BME280;53880;47.526;18.986;2023-04-22T08:28:22;99633.22;;;21.57;43.99
41246;BME280;53880;47.526;18.986;2023-04-22T08:30:40;99623.53;;;21.56;43.91
41246;BME280;53880;47.526;18.986;2023-04-22T08:33:00;99624.34;;;21.57;43.67
41246;BME280;53880;47.526;18.986;2023-04-22T08:35:18;99628.53;;;21.59;43.53
41246;BME280;53880;47.526;18.986;2023-04-22T08:37:33;99626.03;;;21.58;44.02
41246;BME280;53880;47.526;18.986;2023-04-22T08:39:48;99635.06;;;21.57;43.86
41246;BME280;53880;47.526;18.986;2023-04-22T08:42:04;99633.22;;;21.57;43.44
41246;BME280;53880;47.526;18.986;2023-04-22T08:44:26;99629.53;;;21.58;43.54
41246;BME280;53880;47.526;18.986;2023-04-22T08:46:43;99631.38;;;21.58;43.28
41246;BME280;53880;47.526;18.986;2023-04-22T08:49:05;99622.50;;;21.57;43.12
41246;BME280;53880;47.526;18.986;2023-04-22T08:51:23;99622.69;;;21.56;43.29
41246;BME280;53880;47.526;18.986;2023-04-22T08:53:44;99625.38;;;21.56;43.30
41246;BME280;53880;47.526;18.986;2023-04-22T08:56:02;99619.16;;;21.55;43.40
41246;BME280;53880;47.526;18.986;2023-04-22T08:58:19;99623.88;;;21.53;43.55
41246;BME280;53880;47.526;18.986;2023-04-22T09:00:42;99625.56;;;21.54;43.53
41246;BME280;53880;47.526;18.986;2023-04-22T09:03:02;99622.38;;;21.51;43.51
41246;BME280;53880;47.526;18.986;2023-04-22T09:05:21;99610.00;;;21.50;43.21
41246;BME280;53880;47.526;18.986;2023-04-22T09:07:42;99614.50;;;21.49;43.14
41246;BME280;53880;47.526;18.986;2023-04-22T09:09:57;99620.06;;;21.48;41.76
41246;BME280;53880;47.526;18.986;2023-04-22T09:12:20;99629.94;;;21.47;41.65
41246;BME280;53880;47.526;18.986;2023-04-22T09:14:37;99615.88;;;21.45;41.56
41246;BME280;53880;47.526;18.986;2023-04-22T09:16:53;99616.72;;;21.46;42.29
41246;BME280;53880;47.526;18.986;2023-04-22T09:19:13;99622.22;;;21.44;42.58
41246;BME280;53880;47.526;18.986;2023-04-22T09:21:33;99615.22;;;21.43;42.78
41246;BME280;53880;47.526;18.986;2023-04-22T09:23:52;99613.53;;;21.42;42.98
41246;BME280;53880;47.526;18.986;2023-04-22T09:26:10;99613.53;;;21.42;43.14
41246;BME280;53880;47.526;18.986;2023-04-22T09:28:25;99621.75;;;21.41;43.40
41246;BME280;53880;47.526;18.986;2023-04-22T09:30:46;99613.88;;;21.39;42.81
41246;BME280;53880;47.526;18.986;2023-04-22T09:33:04;99619.75;;;21.35;42.75
41246;BME280;53880;47.526;18.986;2023-04-22T09:35:30;99611.06;;;21.33;42.13
41246;BME280;53880;47.526;18.986;2023-04-22T09:37:51;99611.88;;;21.33;42.13
41246;BME280;53880;47.526;18.986;2023-04-22T09:40:09;99610.22;;;21.32;41.87
41246;BME280;53880;47.526;18.986;2023-04-22T09:42:50;99608.03;;;21.36;40.04
41246;BME280;53880;47.526;18.986;2023-04-22T09:45:09;99600.63;;;21.38;38.05
41246;BME280;53880;47.526;18.986;2023-04-22T09:47:24;99598.31;;;21.35;36.32
41246;BME280;53880;47.526;18.986;2023-04-22T09:49:48;99588.84;;;21.16;34.41
41246;BME280;53880;47.526;18.986;2023-04-22T09:52:06;99586.53;;;21.13;34.51
41246;BME280;53880;47.526;18.986;2023-04-22T09:54:27;99580.78;;;21.16;35.63
41246;BME280;53880;47.526;18.986;2023-04-22T09:56:52;99584.03;;;20.79;32.53
41246;BME280;53880;47.526;18.986;2023-04-22T09:59:10;99586.25;;;20.76;32.94
41246;BME280;53880;47.526;18.986;2023-04-22T10:01:37;99585.56;;;20.82;33.02
41246;BME280;53880;47.526;18.986;2023-04-22T10:03:59;99574.19;;;20.80;32.71
41246;BME280;53880;47.526;18.986;2023-04-22T10:06:17;99582.75;;;20.67;32.37
41246;BME280;53880;47.526;18.986;2023-04-22T10:08:35;99573.72;;;20.60;31.95
41246;BME280;53880;47.526;18.986;2023-04-22T10:10:53;99575.25;;;20.46;31.03
41246;BME280;53880;47.526;18.986;2023-04-22T10:13:10;99570.56;;;20.32;32.13
41246;BME280;53880;47.526;18.986;2023-04-22T10:15:34;99567.03;;;20.48;33.01
41246;BME280;53880;47.526;18.986;2023-04-22T10:17:56;99561.19;;;20.52;32.33
41246;BME280;53880;47.526;18.986;2023-04-22T10:20:17;99566.53;;;20.44;31.77
41246;BME280;53880;47.526;18.986;2023-04-22T10:22:33;99563.03;;;20.36;32.05
41246;BME280;53880;47.526;18.986;2023-04-22T10:24:54;99556.84;;;20.27;32.31
41246;BME280;53880;47.526;18.986;2023-04-22T10:27:20;99560.19;;;20.37;33.07
41246;BME280;53880;47.526;18.986;2023-04-22T10:29:40;99565.88;;;20.50;33.05
41246;BME280;53880;47.526;18.986;2023-04-22T10:32:05;99550.81;;;20.66;33.94
41246;BME280;53880;47.526;18.986;2023-04-22T10:34:40;99552.47;;;20.67;32.98
41246;BME280;53880;47.526;18.986;2023-04-22T10:37:20;99553.81;;;20.63;32.70
41246;BME280;53880;47.526;18.986;2023-04-22T10:39:38;99562.50;;;20.65;34.72
41246;BME280;53880;47.526;18.986;2023-04-22T10:42:13;99558.31;;;20.62;32.97
41246;BME280;53880;47.526;18.986;2023-04-22T10:47:00;99557.69;;;20.44;32.14
41246;BME280;53880;47.526;18.986;2023-04-22T10:49:22;99557.34;;;20.47;33.28
41246;BME280;53880;47.526;18.986;2023-04-22T10:51:41;99559.31;;;20.53;34.38
41246;BME280;53880;47.526;18.986;2023-04-22T10:54:01;99560.50;;;20.59;34.62
41246;BME280;53880;47.526;18.986;2023-04-22T10:56:21;99550.94;;;20.64;35.20
41246;BME280;53880;47.526;18.986;2023-04-22T10:58:37;99556.81;;;20.68;34.94
41246;BME280;53880;47.526;18.986;2023-04-22T11:00:52;99553.78;;;20.71;35.19
41246;BME280;53880;47.526;18.986;2023-04-22T11:03:16;99555.28;;;20.73;35.34
41246;BME280;53880;47.526;18.986;2023-04-22T11:05:34;99552.59;;;20.73;35.97
41246;BME280;53880;47.526;18.986;2023-04-22T11:08:01;99552.28;;;20.76;36.09
41246;BME280;53880;47.526;18.986;2023-04-22T11:13:00;99550.75;;;20.82;36.54
41246;BME280;53880;47.526;18.986;2023-04-22T11:15:19;99554.94;;;20.84;36.86
41246;BME280;53880;47.526;18.986;2023-04-22T11:17:37;99556.63;;;20.85;37.11
41246;BME280;53880;47.526;18.986;2023-04-22T11:19:58;99553.56;;;20.88;37.48
41246;BME280;53880;47.526;18.986;2023-04-22T11:22:13;99551.75;;;20.89;37.84
41246;BME280;53880;47.526;18.986;2023-04-22T11:24:33;99552.59;;;20.89;38.07
41246;BME280;53880;47.526;18.986;2023-04-22T11:26:54;99554.06;;;20.92;37.91
41246;BME280;53880;47.526;18.986;2023-04-22T11:29:12;99551.38;;;20.92;37.71
41246;BME280;53880;47.526;18.986;2023-04-22T11:31:34;99553.91;;;20.93;38.04
41246;BME280;53880;47.526;18.986;2023-04-22T11:33:58;99547.38;;;20.96;38.04
41246;BME280;53880;47.526;18.986;2023-04-22T11:36:18;99547.38;;;20.96;38.16
41246;BME280;53880;47.526;18.986;2023-04-22T11:38:36;99550.06;;;20.96;38.38
41246;BME280;53880;47.526;18.986;2023-04-22T11:40:55;99544.50;;;20.97;38.43
41246;BME280;53880;47.526;18.986;2023-04-22T11:43:11;99547.00;;;20.99;38.33
41246;BME280;53880;47.526;18.986;2023-04-22T11:45:33;99542.31;;;21.01;38.15
41246;BME280;53880;47.526;18.986;2023-04-22T11:47:54;99537.31;;;21.06;37.69
41246;BME280;53880;47.526;18.986;2023-04-22T11:50:13;99543.00;;;21.11;37.78
41246;BME280;53880;47.526;18.986;2023-04-22T11:53:01;99535.75;;;21.19;37.37
41246;BME280;53880;47.526;18.986;2023-04-22T11:55:39;99539.72;;;21.32;36.14
41246;BME280;53880;47.526;18.986;2023-04-22T11:58:00;99539.50;;;21.41;36.61
41246;BME280;53880;47.526;18.986;2023-04-22T12:00:21;99547.69;;;21.48;33.81
41246;BME280;53880;47.526;18.986;2023-04-22T12:02:42;99536.91;;;21.56;33.79
41246;BME280;53880;47.526;18.986;2023-04-22T12:05:12;99539.53;;;21.64;34.00
41246;BME280;53880;47.526;18.986;2023-04-22T12:07:30;99544.03;;;21.71;34.70
41246;BME280;53880;47.526;18.986;2023-04-22T12:09:52;99543.13;;;21.79;34.44
41246;BME280;53880;47.526;18.986;2023-04-22T12:12:07;99544.47;;;21.83;35.03
41246;BME280;53880;47.526;18.986;2023-04-22T12:14:35;99545.63;;;21.88;34.58